createdAt,value
2017-04-06T00:01:21.707Z,1012.19
2017-04-06T00:02:21.729Z,1012.18
2017-04-06T00:03:21.743Z,1012.21
2017-04-06T00:04:21.763Z,1012.17
2017-04-06T00:05:21.786Z,1012.15
2017-04-06T00:06:21.803Z,1012.25
2017-04-06T00:07:21.821Z,1012.15
2017-04-06T00:08:21.842Z,1012.21
2017-04-06T00:09:21.860Z,1012.17
2017-04-06T00:10:21.880Z,1012.11
2017-04-06T00:11:21.899Z,1012.14
2017-04-06T00:12:21.920Z,1012.16
2017-04-06T00:13:21.938Z,1012.25
2017-04-06T00:14:21.959Z,1012.15
2017-04-06T00:15:21.977Z,1012.19
2017-04-06T00:16:21.997Z,1012.18
2017-04-06T00:17:22.017Z,1012.16
2017-04-06T00:18:22.035Z,1012.13
2017-04-06T00:19:22.056Z,1012.1
2017-04-06T00:20:22.074Z,1012.1
2017-04-06T00:21:22.093Z,1012.07
2017-04-06T00:22:22.114Z,1012.17
2017-04-06T00:23:22.132Z,1012.07
2017-04-06T00:24:22.152Z,1012.03
2017-04-06T00:25:22.170Z,1012.11
2017-04-06T00:26:22.191Z,1012.01
2017-04-06T00:27:22.211Z,1012.09
2017-04-06T00:28:22.229Z,1012.12
2017-04-06T00:29:22.249Z,1012.08
2017-04-06T00:30:22.269Z,1012.12
2017-04-06T00:31:22.287Z,1012.07
2017-04-06T00:33:22.326Z,1012.11
2017-04-06T00:34:22.346Z,1012.14
2017-04-06T00:35:22.364Z,1011.97
2017-04-06T00:36:22.384Z,1012.1
2017-04-06T00:37:22.403Z,1012.03
2017-04-06T00:38:22.424Z,1012.02
2017-04-06T00:39:22.442Z,1011.97
2017-04-06T00:40:22.460Z,1012.18
2017-04-06T00:41:22.481Z,1012
2017-04-06T00:42:22.500Z,1012.06
2017-04-06T00:43:22.518Z,1012.14
2017-04-06T00:44:22.538Z,1012.13
2017-04-06T00:45:22.558Z,1012.06
2017-04-06T00:46:22.577Z,1012.13
2017-04-06T00:47:22.595Z,1012.18
2017-04-06T00:49:22.635Z,1012.17
2017-04-06T00:50:22.653Z,1012.27
2017-04-06T00:51:22.673Z,1012.18
2017-04-06T00:52:22.693Z,1012.2
2017-04-06T00:53:22.710Z,1012.19
2017-04-06T00:54:22.731Z,1012.3
2017-04-06T00:55:22.751Z,1012.21
2017-04-06T00:56:22.770Z,1012.22
2017-04-06T00:57:22.787Z,1012.2
2017-04-06T00:58:22.807Z,1012.19
2017-04-06T00:59:22.826Z,1012.2
2017-04-06T01:00:22.845Z,1012.18
2017-04-06T01:01:22.865Z,1012.22
2017-04-06T01:02:22.884Z,1012.15
2017-04-06T01:03:22.903Z,1012.17
2017-04-06T01:05:22.940Z,1012.26
2017-04-06T01:06:22.960Z,1012.25
2017-04-06T01:07:22.980Z,1012.28
2017-04-06T01:08:22.999Z,1012.22
2017-04-06T01:09:23.018Z,1012.23
2017-04-06T01:10:23.037Z,1012.26
2017-04-06T01:11:23.056Z,1012.1
2017-04-06T01:12:23.075Z,1012.17
2017-04-06T01:13:23.094Z,1012.32
2017-04-06T01:14:23.112Z,1012.2
2017-04-06T01:15:23.132Z,1012.17
2017-04-06T01:16:23.151Z,1012.19
2017-04-06T01:17:23.172Z,1012.17
2017-04-06T01:18:23.190Z,1012.15
2017-04-06T01:19:23.209Z,1012.18
2017-04-06T01:21:23.248Z,1012.19
2017-04-06T01:22:23.267Z,1012.2
2017-04-06T01:23:23.284Z,1012.19
2017-04-06T01:24:23.304Z,1012.33
2017-04-06T01:25:23.323Z,1012.26
2017-04-06T01:26:23.344Z,1012.14
2017-04-06T01:27:23.362Z,1012.21
2017-04-06T01:28:23.381Z,1012.21
2017-04-06T01:29:23.400Z,1012.22
2017-04-06T01:30:23.418Z,1012.23
2017-04-06T01:31:23.438Z,1012.25
2017-04-06T01:32:23.458Z,1012.24
2017-04-06T01:33:23.478Z,1012.23
2017-04-06T01:34:23.496Z,1012.25
2017-04-06T01:36:23.537Z,1012.19
2017-04-06T01:37:23.555Z,1012.19
2017-04-06T01:38:23.574Z,1012.18
2017-04-06T01:39:23.592Z,1012.19
2017-04-06T01:40:23.613Z,1012.16
2017-04-06T01:41:23.630Z,1012.18
2017-04-06T01:42:23.650Z,1012.2
2017-04-06T01:43:23.669Z,1012.14
2017-04-06T01:44:23.688Z,1012.24
2017-04-06T01:45:23.708Z,1012.2
2017-04-06T01:46:23.727Z,1012.2
2017-04-06T01:47:23.746Z,1012.24
2017-04-06T01:48:23.765Z,1012.22
2017-04-06T01:49:23.784Z,1012.11
2017-04-06T01:50:23.802Z,1012.2
2017-04-06T01:51:23.822Z,1012.14
2017-04-06T01:52:23.840Z,1012.12
2017-04-06T01:53:23.861Z,1012.12
2017-04-06T01:54:23.880Z,1012.12
2017-04-06T01:55:23.897Z,1012.21
2017-04-06T01:56:23.918Z,1012.21
2017-04-06T01:57:23.936Z,1012.34
2017-04-06T01:58:23.956Z,1012.24
2017-04-06T01:59:23.974Z,1012.36
2017-04-06T02:00:23.993Z,1012.3
2017-04-06T02:01:24.013Z,1012.33
2017-04-06T02:02:24.032Z,1012.35
2017-04-06T02:03:24.051Z,1012.24
2017-04-06T02:04:24.069Z,1012.33
2017-04-06T02:05:24.088Z,1012.36
2017-04-06T02:06:24.106Z,1012.33
2017-04-06T02:08:24.146Z,1012.4
2017-04-06T02:09:24.164Z,1012.37
2017-04-06T02:10:24.183Z,1012.41
2017-04-06T02:11:24.203Z,1012.39
2017-04-06T02:12:24.222Z,1012.4
2017-04-06T02:13:24.241Z,1012.45
2017-04-06T02:14:24.259Z,1012.47
2017-04-06T02:15:24.278Z,1012.44
2017-04-06T02:16:24.298Z,1012.42
2017-04-06T02:17:24.315Z,1012.38
2017-04-06T02:18:24.336Z,1012.43
2017-04-06T02:19:24.353Z,1012.43
2017-04-06T02:20:24.373Z,1012.42
2017-04-06T02:21:24.391Z,1012.38
2017-04-06T02:22:24.411Z,1012.45
2017-04-06T02:24:24.448Z,1012.42
2017-04-06T02:25:24.466Z,1012.44
2017-04-06T02:26:24.484Z,1012.44
2017-04-06T02:27:24.504Z,1012.43
2017-04-06T02:28:24.522Z,1012.53
2017-04-06T02:29:24.542Z,1012.5
2017-04-06T02:30:24.560Z,1012.51
2017-04-06T02:31:24.580Z,1012.46
2017-04-06T02:32:24.597Z,1012.46
2017-04-06T02:33:24.617Z,1012.5
2017-04-06T02:34:24.636Z,1012.46
2017-04-06T02:35:24.654Z,1012.4
2017-04-06T02:36:24.672Z,1012.42
2017-04-06T02:37:24.693Z,1012.38
2017-04-06T02:38:24.711Z,1012.46
2017-04-06T02:40:24.747Z,1012.52
2017-04-06T02:41:24.766Z,1012.45
2017-04-06T02:42:24.785Z,1012.46
2017-04-06T02:43:24.804Z,1012.42
2017-04-06T02:44:24.821Z,1012.5
2017-04-06T02:45:24.840Z,1012.55
2017-04-06T02:46:24.860Z,1012.57
2017-04-06T02:47:24.878Z,1012.58
2017-04-06T02:48:24.896Z,1012.56
2017-04-06T02:49:24.915Z,1012.62
2017-04-06T02:50:24.933Z,1012.51
2017-04-06T02:51:24.952Z,1012.59
2017-04-06T02:52:24.971Z,1012.64
2017-04-06T02:53:24.991Z,1012.52
2017-04-06T02:54:25.007Z,1012.6
2017-04-06T02:56:25.046Z,1012.57
2017-04-06T02:57:25.065Z,1012.55
2017-04-06T02:58:25.081Z,1012.57
2017-04-06T02:59:25.102Z,1012.59
2017-04-06T03:00:25.121Z,1012.61
2017-04-06T03:01:25.138Z,1012.59
2017-04-06T03:02:25.157Z,1012.6
2017-04-06T03:03:25.176Z,1012.63
2017-04-06T03:04:25.194Z,1012.66
2017-04-06T03:05:25.213Z,1012.71
2017-04-06T03:06:25.231Z,1012.69
2017-04-06T03:07:25.252Z,1012.69
2017-04-06T03:08:25.270Z,1012.8
2017-04-06T03:09:25.288Z,1012.75
2017-04-06T03:11:25.325Z,1012.79
2017-04-06T03:12:25.344Z,1012.82
2017-04-06T03:13:25.362Z,1012.82
2017-04-06T03:14:25.379Z,1012.82
2017-04-06T03:15:25.401Z,1012.83
2017-04-06T03:16:25.417Z,1012.85
2017-04-06T03:17:25.438Z,1012.88
2017-04-06T03:18:25.455Z,1012.84
2017-04-06T03:19:25.472Z,1012.89
2017-04-06T03:20:25.492Z,1012.87
2017-04-06T03:21:25.540Z,1012.82
2017-04-06T03:22:25.530Z,1012.82
2017-04-06T03:23:25.547Z,1012.85
2017-04-06T03:24:25.566Z,1012.89
2017-04-06T03:25:25.585Z,1012.9
2017-04-06T03:26:25.604Z,1012.94
2017-04-06T03:27:25.621Z,1012.89
2017-04-06T03:28:25.639Z,1012.9
2017-04-06T03:29:25.662Z,1012.86
2017-04-06T03:30:25.677Z,1012.88
2017-04-06T03:31:25.694Z,1012.9
2017-04-06T03:32:25.715Z,1012.8
2017-04-06T03:33:25.732Z,1012.84
2017-04-06T03:34:25.750Z,1012.85
2017-04-06T03:35:25.768Z,1012.84
2017-04-06T03:36:25.788Z,1012.84
2017-04-06T03:37:25.807Z,1012.88
2017-04-06T03:38:25.823Z,1012.89
2017-04-06T03:39:25.842Z,1012.91
2017-04-06T03:40:25.861Z,1012.97
2017-04-06T03:41:25.878Z,1012.97
2017-04-06T03:43:25.917Z,1012.99
2017-04-06T03:44:25.937Z,1013
2017-04-06T03:45:25.953Z,1013.04
2017-04-06T03:46:25.973Z,1012.97
2017-04-06T03:47:25.990Z,1013.03
2017-04-06T03:48:26.009Z,1013.06
2017-04-06T03:49:26.048Z,1013.05
2017-04-06T03:50:26.046Z,1013.16
2017-04-06T03:51:26.065Z,1013.13
2017-04-06T03:52:26.082Z,1013.13
2017-04-06T03:53:26.102Z,1013.15
2017-04-06T03:54:26.120Z,1013.17
2017-04-06T03:55:26.138Z,1013.15
2017-04-06T03:56:26.158Z,1013.15
2017-04-06T03:57:26.177Z,1013.18
2017-04-06T03:59:26.213Z,1013.2
2017-04-06T04:00:26.231Z,1013.14
2017-04-06T04:01:26.249Z,1013.16
2017-04-06T04:02:26.269Z,1013.18
2017-04-06T04:03:26.287Z,1013.18
2017-04-06T04:04:26.304Z,1013.15
2017-04-06T04:05:26.323Z,1013.22
2017-04-06T04:06:26.342Z,1013.18
2017-04-06T04:07:26.360Z,1013.18
2017-04-06T04:08:26.379Z,1013.22
2017-04-06T04:09:26.397Z,1013.23
2017-04-06T04:10:26.417Z,1013.18
2017-04-06T04:11:26.434Z,1013.25
2017-04-06T04:12:26.454Z,1013.22
2017-04-06T04:13:26.472Z,1013.23
2017-04-06T04:15:26.510Z,1013.26
2017-04-06T04:16:26.529Z,1013.19
2017-04-06T04:17:26.546Z,1013.23
2017-04-06T04:18:26.564Z,1013.22
2017-04-06T04:19:26.584Z,1013.21
2017-04-06T04:20:26.603Z,1013.16
2017-04-06T04:21:26.620Z,1013.2
2017-04-06T04:22:26.640Z,1013.16
2017-04-06T04:23:26.657Z,1013.18
2017-04-06T04:24:26.675Z,1013.1
2017-04-06T04:25:26.694Z,1013.16
2017-04-06T04:26:26.714Z,1013.17
2017-04-06T04:27:26.733Z,1013.22
2017-04-06T04:28:26.781Z,1013.2
2017-04-06T04:29:26.769Z,1013.23
2017-04-06T04:31:26.806Z,1013.32
2017-04-06T04:32:26.824Z,1013.26
2017-04-06T04:33:26.842Z,1013.31
2017-04-06T04:34:26.861Z,1013.26
2017-04-06T04:35:26.881Z,1013.34
2017-04-06T04:36:26.898Z,1013.41
2017-04-06T04:37:26.918Z,1013.38
2017-04-06T04:38:26.935Z,1013.4
2017-04-06T04:39:26.954Z,1013.41
2017-04-06T04:40:26.972Z,1013.35
2017-04-06T04:41:26.992Z,1013.39
2017-04-06T04:42:27.009Z,1013.44
2017-04-06T04:43:27.029Z,1013.49
2017-04-06T04:44:27.047Z,1013.46
2017-04-06T04:46:27.087Z,1013.51
2017-04-06T04:47:27.102Z,1013.55
2017-04-06T04:48:27.121Z,1013.56
2017-04-06T04:49:27.140Z,1013.7
2017-04-06T04:50:27.160Z,1013.62
2017-04-06T04:51:27.179Z,1013.59
2017-04-06T04:52:27.196Z,1013.66
2017-04-06T04:53:27.215Z,1013.62
2017-04-06T04:54:27.231Z,1013.65
2017-04-06T04:55:27.252Z,1013.71
2017-04-06T04:56:27.271Z,1013.66
2017-04-06T04:57:27.290Z,1013.73
2017-04-06T04:58:27.307Z,1013.74
2017-04-06T04:59:27.325Z,1013.77
2017-04-06T05:00:27.345Z,1013.8
2017-04-06T05:01:27.365Z,1013.8
2017-04-06T05:02:27.381Z,1013.81
2017-04-06T05:03:27.401Z,1013.76
2017-04-06T05:04:27.419Z,1013.83
2017-04-06T05:05:27.438Z,1013.93
2017-04-06T05:06:27.456Z,1013.88
2017-04-06T05:07:27.475Z,1013.88
2017-04-06T05:08:27.495Z,1013.88
2017-04-06T05:09:27.512Z,1013.97
2017-04-06T05:10:27.531Z,1013.94
2017-04-06T05:11:27.553Z,1013.99
2017-04-06T05:12:27.569Z,1013.88
2017-04-06T05:13:27.588Z,1013.93
2017-04-06T05:14:27.606Z,1013.87
2017-04-06T05:15:27.625Z,1013.91
2017-04-06T05:16:27.644Z,1013.98
2017-04-06T05:18:27.684Z,1014.05
2017-04-06T05:19:27.701Z,1014.1
2017-04-06T05:20:27.722Z,1014.17
2017-04-06T05:21:27.741Z,1014.08
2017-04-06T05:22:27.762Z,1014.09
2017-04-06T05:23:27.781Z,1014.07
2017-04-06T05:24:27.800Z,1014.04
2017-04-06T05:25:27.870Z,1013.96
2017-04-06T05:26:27.841Z,1014.07
2017-04-06T05:27:27.860Z,1014.03
2017-04-06T05:28:27.881Z,1014.1
2017-04-06T05:29:27.901Z,1014.08
2017-04-06T05:30:27.921Z,1013.91
2017-04-06T05:31:27.947Z,1013.99
2017-04-06T05:32:27.960Z,1014.04
2017-04-06T05:34:28.002Z,1014
2017-04-06T05:35:28.022Z,1014.03
2017-04-06T05:36:28.040Z,1014.03
2017-04-06T05:37:28.060Z,1014.02
2017-04-06T05:38:28.081Z,1014.14
2017-04-06T05:39:28.099Z,1014.02
2017-04-06T05:40:28.120Z,1014.26
2017-04-06T05:41:28.140Z,1014.37
2017-04-06T05:42:28.160Z,1014.31
2017-04-06T05:43:28.181Z,1014.2
2017-04-06T05:44:28.201Z,1014.31
2017-04-06T05:45:28.221Z,1014.36
2017-04-06T05:46:28.243Z,1014.32
2017-04-06T05:47:28.264Z,1014.32
2017-04-06T05:48:28.285Z,1014.31
2017-04-06T05:50:28.327Z,1014.55
2017-04-06T05:51:28.350Z,1014.45
2017-04-06T05:52:28.373Z,1014.67
2017-04-06T05:53:28.393Z,1014.68
2017-04-06T05:54:28.417Z,1014.74
2017-04-06T05:55:28.440Z,1014.65
2017-04-06T05:56:28.967Z,1014.8
2017-04-06T05:57:28.485Z,1014.42
2017-04-06T05:58:28.509Z,1015.27
2017-04-06T05:59:28.534Z,1015.39
2017-04-06T06:00:28.556Z,1015.59
2017-04-06T06:01:28.581Z,1015.56
2017-04-06T06:02:28.605Z,1015.25
2017-04-06T06:03:28.630Z,1015.45
2017-04-06T06:04:28.654Z,1015.47
2017-04-06T06:06:28.704Z,1015.55
2017-04-06T06:07:28.729Z,1015.39
2017-04-06T06:08:28.754Z,1015.73
2017-04-06T06:09:28.778Z,1015.79
2017-04-06T06:10:28.805Z,1015.67
2017-04-06T06:11:28.829Z,1015.81
2017-04-06T06:12:28.855Z,1015.42
2017-04-06T06:13:28.880Z,1014.78
2017-04-06T06:14:28.908Z,1015.1
2017-04-06T06:15:28.932Z,1015.96
2017-04-06T06:16:28.959Z,1015.95
2017-04-06T06:17:28.986Z,1016.09
2017-04-06T06:18:29.011Z,1015.05
2017-04-06T06:19:29.038Z,1015.05
2017-04-06T06:21:29.092Z,1015.91
2017-04-06T06:22:29.119Z,1015.81
2017-04-06T06:23:29.144Z,1016.08
2017-04-06T06:24:29.172Z,1016.12
2017-04-06T06:25:29.198Z,1015.29
2017-04-06T06:26:29.225Z,1016.11
2017-04-06T06:27:29.252Z,1016.21
2017-04-06T06:28:29.279Z,1016.33
2017-04-06T06:29:29.306Z,1016.44
2017-04-06T06:30:29.334Z,1016.45
2017-04-06T06:31:29.361Z,1016.47
2017-04-06T06:32:29.388Z,1016.59
2017-04-06T06:33:29.417Z,1016.52
2017-04-06T06:34:29.445Z,1016.54
2017-04-06T06:35:29.473Z,1016.56
2017-04-06T06:36:29.500Z,1016.61
2017-04-06T06:37:29.529Z,1016.62
2017-04-06T06:38:29.558Z,1016.6
2017-04-06T06:39:29.585Z,1016.75
2017-04-06T06:40:29.615Z,1016.68
2017-04-06T06:41:29.643Z,1015.68
2017-04-06T06:43:29.700Z,1016.62
2017-04-06T06:44:29.728Z,1016.58
2017-04-06T06:45:29.758Z,1016.73
2017-04-06T06:46:29.787Z,1016.57
2017-04-06T06:47:29.816Z,1016.64
2017-04-06T06:48:29.846Z,1016.61
2017-04-06T06:49:29.875Z,1016.62
2017-04-06T06:50:29.905Z,1016.58
2017-04-06T06:51:29.938Z,1015.79
2017-04-06T06:53:29.994Z,1016.55
2017-04-06T06:54:30.024Z,1016.55
2017-04-06T06:55:30.051Z,1016.5
2017-04-06T06:56:30.082Z,1016.35
2017-04-06T06:57:30.113Z,1016.25
2017-04-06T06:58:30.141Z,1016.39
2017-04-06T06:59:30.170Z,1016.47
2017-04-06T07:00:30.199Z,1016.59
2017-04-06T07:01:30.230Z,1016.51
2017-04-06T07:02:30.260Z,1016.37
2017-04-06T07:03:30.289Z,1016.48
2017-04-06T07:04:30.320Z,1016.48
2017-04-06T07:05:30.352Z,1015.56
2017-04-06T07:06:30.381Z,1016.49
2017-04-06T07:07:30.410Z,1016.44
2017-04-06T07:09:30.473Z,1016.42
2017-04-06T07:10:30.503Z,1016.39
2017-04-06T07:11:30.535Z,1016.34
2017-04-06T07:12:30.565Z,1016.46
2017-04-06T07:13:30.597Z,1016.41
2017-04-06T07:14:30.627Z,1016.37
2017-04-06T07:15:30.659Z,1016.36
2017-04-06T07:16:30.691Z,1016.44
2017-04-06T07:17:30.721Z,1016.43
2017-04-06T07:18:30.752Z,1016.48
2017-04-06T07:19:30.785Z,1016.45
2017-04-06T07:20:30.817Z,1016.4
2017-04-06T07:21:30.847Z,1016.43
2017-04-06T07:22:30.878Z,1016.38
2017-04-06T07:23:30.912Z,1016.46
2017-04-06T07:25:30.973Z,1016.43
2017-04-06T07:26:31.006Z,1016.41
2017-04-06T07:27:31.036Z,1016.46
2017-04-06T07:28:31.067Z,1016.47
2017-04-06T07:29:31.099Z,1016.35
2017-04-06T07:30:31.132Z,1016.44
2017-04-06T07:31:31.162Z,1016.42
2017-04-06T07:32:31.195Z,1016.43
2017-04-06T07:33:31.225Z,1016.31
2017-04-06T07:34:31.256Z,1016.44
2017-04-06T07:35:31.637Z,1016.41
2017-04-06T07:36:31.319Z,1016.35
2017-04-06T07:37:31.349Z,1016.43
2017-04-06T07:38:31.381Z,1016.38
2017-04-06T07:39:31.412Z,1016.37
2017-04-06T07:41:31.474Z,1016.36
2017-04-06T07:42:31.506Z,1016.35
2017-04-06T07:43:31.537Z,1016.39
2017-04-06T07:44:31.569Z,1016.34
2017-04-06T07:45:31.599Z,1016.32
2017-04-06T07:46:31.629Z,1016.25
2017-04-06T07:47:31.662Z,1016.27
2017-04-06T07:48:31.694Z,1016.22
2017-04-06T07:49:31.723Z,1016.26
2017-04-06T07:50:31.754Z,1016.21
2017-04-06T07:51:31.784Z,1016.25
2017-04-06T07:52:31.817Z,1016.27
2017-04-06T07:53:31.846Z,1016.31
2017-04-06T07:54:31.878Z,1016.33
2017-04-06T07:56:31.940Z,1016.25
2017-04-06T07:57:31.971Z,1016.23
2017-04-06T07:58:32.002Z,1016.27
2017-04-06T07:59:32.033Z,1016.15
2017-04-06T08:00:32.065Z,1015.98
2017-04-06T08:01:32.094Z,1015.91
2017-04-06T08:02:32.126Z,1015.9
2017-04-06T08:03:32.158Z,1015.85
2017-04-06T08:04:32.189Z,1015.95
2017-04-06T08:05:32.219Z,1015.88
2017-04-06T08:06:32.249Z,1015.89
2017-04-06T08:07:32.281Z,1015.83
2017-04-06T08:08:32.315Z,1015.87
2017-04-06T08:09:32.341Z,1015.93
2017-04-06T08:10:32.373Z,1015.8
2017-04-06T08:11:32.404Z,1015.88
2017-04-06T08:12:32.435Z,1015.8
2017-04-06T08:13:32.466Z,1015.78
2017-04-06T08:14:32.498Z,1015.81
2017-04-06T08:15:32.527Z,1015.85
2017-04-06T08:16:32.559Z,1015.85
2017-04-06T08:17:32.589Z,1015.88
2017-04-06T08:18:32.622Z,1015.82
2017-04-06T08:19:32.666Z,1015.83
2017-04-06T08:20:32.683Z,1015.79
2017-04-06T08:21:32.713Z,1015.94
2017-04-06T08:22:32.743Z,1015.89
2017-04-06T08:23:32.774Z,1015.9
2017-04-06T08:24:32.805Z,1015.95
2017-04-06T08:25:32.834Z,1015.98
2017-04-06T08:26:32.865Z,1015.97
2017-04-06T08:28:32.926Z,1016
2017-04-06T08:29:32.956Z,1015.97
2017-04-06T08:30:32.988Z,1016.01
2017-04-06T08:31:33.029Z,1016.01
2017-04-06T08:32:33.061Z,1016.04
2017-04-06T08:33:33.088Z,1015.99
2017-04-06T08:34:33.111Z,1015.98
2017-04-06T08:35:33.145Z,1016.02
2017-04-06T08:36:33.168Z,1016.01
2017-04-06T08:37:33.198Z,1016.05
2017-04-06T08:38:33.243Z,1016
2017-04-06T08:39:33.268Z,1016.02
2017-04-06T08:40:33.289Z,1016.06
2017-04-06T08:41:33.331Z,1016
2017-04-06T08:42:33.347Z,1016.06
2017-04-06T08:44:33.408Z,1016.05
2017-04-06T08:45:33.436Z,1016.1
2017-04-06T08:46:33.466Z,1016.13
2017-04-06T08:47:33.496Z,1016.04
2017-04-06T08:48:33.536Z,1016.09
2017-04-06T08:49:33.556Z,1016.1
2017-04-06T08:50:33.585Z,1016.15
2017-04-06T08:51:33.615Z,1016.06
2017-04-06T08:52:33.644Z,1016.11
2017-04-06T08:53:33.673Z,1016.1
2017-04-06T08:54:33.705Z,1016.12
2017-04-06T08:55:33.733Z,1016.13
2017-04-06T08:56:33.761Z,1016.1
2017-04-06T08:57:33.792Z,1016.13
2017-04-06T08:58:33.821Z,1016.12
2017-04-06T09:00:33.879Z,1016.13
2017-04-06T09:01:33.908Z,1016.17
2017-04-06T09:02:33.938Z,1016.26
2017-04-06T09:03:33.965Z,1016.24
2017-04-06T09:04:33.995Z,1016.31
2017-04-06T09:05:34.025Z,1016.19
2017-04-06T09:06:34.052Z,1016.25
2017-04-06T09:07:34.111Z,1016.17
2017-04-06T09:08:34.109Z,1016.18
2017-04-06T09:09:34.140Z,1016.28
2017-04-06T09:10:34.168Z,1016.2
2017-04-06T09:11:34.196Z,1016.19
2017-04-06T09:12:34.225Z,1016.22
2017-04-06T09:13:34.253Z,1016.25
2017-04-06T09:14:34.285Z,1016.24
2017-04-06T09:16:34.340Z,1016.32
2017-04-06T09:17:34.367Z,1016.3
2017-04-06T09:18:34.396Z,1016.31
2017-04-06T09:19:34.426Z,1016.35
2017-04-06T09:20:34.455Z,1016.36
2017-04-06T09:21:34.480Z,1016.4
2017-04-06T09:22:34.509Z,1016.37
2017-04-06T09:23:34.539Z,1016.44
2017-04-06T09:24:34.568Z,1016.46
2017-04-06T09:25:34.596Z,1016.53
2017-04-06T09:26:34.623Z,1016.49
2017-04-06T09:27:34.653Z,1016.43
2017-04-06T09:28:34.681Z,1016.41
2017-04-06T09:29:34.708Z,1016.43
2017-04-06T09:31:34.767Z,1016.41
2017-04-06T09:32:34.793Z,1016.43
2017-04-06T09:33:34.824Z,1016.48
2017-04-06T09:34:34.851Z,1016.44
2017-04-06T09:35:34.880Z,1016.52
2017-04-06T09:36:34.906Z,1016.48
2017-04-06T09:37:34.935Z,1016.5
2017-04-06T09:38:34.963Z,1016.52
2017-04-06T09:39:34.991Z,1016.47
2017-04-06T09:40:35.019Z,1016.51
2017-04-06T09:41:35.047Z,1016.52
2017-04-06T09:42:35.080Z,1016.47
2017-04-06T09:43:35.102Z,1016.49
2017-04-06T09:44:35.129Z,1016.46
2017-04-06T09:45:35.158Z,1016.4
2017-04-06T09:46:35.185Z,1016.4
2017-04-06T09:47:35.214Z,1016.37
2017-04-06T09:48:35.240Z,1016.33
2017-04-06T09:49:35.268Z,1016.28
2017-04-06T09:50:35.295Z,1016.35
2017-04-06T09:51:35.323Z,1016.34
2017-04-06T09:52:35.350Z,1016.41
2017-04-06T09:53:35.379Z,1016.43
2017-04-06T09:54:35.406Z,1016.4
2017-04-06T09:55:35.433Z,1016.43
2017-04-06T09:56:35.460Z,1016.45
2017-04-06T09:57:35.488Z,1016.36
2017-04-06T09:58:35.515Z,1016.43
2017-04-06T09:59:35.543Z,1016.38
2017-04-06T10:00:35.570Z,1016.34
2017-04-06T10:01:35.598Z,1016.38
2017-04-06T10:03:35.652Z,1016.42
2017-04-06T10:04:35.684Z,1016.47
2017-04-06T10:05:35.706Z,1016.42
2017-04-06T10:06:35.734Z,1016.41
2017-04-06T10:07:35.761Z,1016.44
2017-04-06T10:08:36.640Z,1016.39
2017-04-06T10:09:35.815Z,1016.37
2017-04-06T10:10:35.844Z,1016.36
2017-04-06T10:11:35.870Z,1016.4
2017-04-06T10:12:35.896Z,1016.47
2017-04-06T10:13:35.925Z,1016.4
2017-04-06T10:14:35.952Z,1016.34
2017-04-06T10:15:35.979Z,1016.28
2017-04-06T10:16:36.005Z,1016.38
2017-04-06T10:17:36.033Z,1016.45
2017-04-06T10:19:36.088Z,1016.39
2017-04-06T10:20:36.114Z,1016.47
2017-04-06T10:21:36.142Z,1016.41
2017-04-06T10:22:36.169Z,1016.43
2017-04-06T10:23:36.195Z,1016.46
2017-04-06T10:24:36.222Z,1016.47
2017-04-06T10:25:36.250Z,1016.47
2017-04-06T10:26:36.276Z,1016.38
2017-04-06T10:27:36.304Z,1016.49
2017-04-06T10:28:36.329Z,1016.48
2017-04-06T10:29:36.359Z,1016.43
2017-04-06T10:30:36.384Z,1016.48
2017-04-06T10:31:36.411Z,1016.49
2017-04-06T10:32:36.437Z,1016.52
2017-04-06T10:33:36.465Z,1016.57
2017-04-06T10:35:36.518Z,1016.57
2017-04-06T10:36:36.548Z,1016.5
2017-04-06T10:37:36.571Z,1016.33
2017-04-06T10:38:36.597Z,1016.37
2017-04-06T10:39:36.624Z,1016.37
2017-04-06T10:40:36.650Z,1016.47
2017-04-06T10:41:36.675Z,1016.45
2017-04-06T10:42:36.702Z,1016.47
2017-04-06T10:43:36.727Z,1016.44
2017-04-06T10:44:36.753Z,1016.5
2017-04-06T10:45:36.780Z,1016.44
2017-04-06T10:46:36.804Z,1016.42
2017-04-06T10:47:36.830Z,1016.38
2017-04-06T10:48:36.854Z,1016.34
2017-04-06T10:49:36.881Z,1016.4
2017-04-06T10:51:36.932Z,1016.34
2017-04-06T10:52:36.957Z,1016.46
2017-04-06T10:53:36.982Z,1016.49
2017-04-06T10:54:37.009Z,1016.47
2017-04-06T10:55:37.034Z,1016.55
2017-04-06T10:56:37.057Z,1016.56
2017-04-06T10:57:37.087Z,1016.64
2017-04-06T10:58:37.108Z,1016.58
2017-04-06T10:59:37.135Z,1016.59
2017-04-06T11:00:37.157Z,1016.56
2017-04-06T11:01:37.184Z,1016.57
2017-04-06T11:02:37.210Z,1016.54
2017-04-06T11:03:37.235Z,1016.51
2017-04-06T11:04:37.260Z,1016.48
2017-04-06T11:06:37.310Z,1016.59
2017-04-06T11:07:37.335Z,1016.53
2017-04-06T11:08:37.359Z,1016.55
2017-04-06T11:09:37.385Z,1016.51
2017-04-06T11:10:37.460Z,1016.5
2017-04-06T11:11:37.434Z,1016.52
2017-04-06T11:12:37.458Z,1016.53
2017-04-06T11:13:37.485Z,1016.61
2017-04-06T11:14:37.507Z,1016.56
2017-04-06T11:15:37.533Z,1016.57
2017-04-06T11:16:37.558Z,1016.57
2017-04-06T11:17:37.582Z,1016.61
2017-04-06T11:18:37.605Z,1016.48
2017-04-06T11:19:37.639Z,1016.51
2017-04-06T11:20:37.657Z,1016.61
2017-04-06T11:21:37.682Z,1016.55
2017-04-06T11:22:37.704Z,1016.68
2017-04-06T11:23:37.729Z,1016.65
2017-04-06T11:24:37.754Z,1016.52
2017-04-06T11:25:37.777Z,1016.52
2017-04-06T11:26:37.802Z,1016.52
2017-04-06T11:27:37.827Z,1016.53
2017-04-06T11:28:37.852Z,1016.56
2017-04-06T11:29:37.875Z,1016.56
2017-04-06T11:30:37.899Z,1016.52
2017-04-06T11:31:37.924Z,1016.54
2017-04-06T11:32:37.949Z,1016.54
2017-04-06T11:33:37.973Z,1016.45
2017-04-06T11:34:37.997Z,1016.45
2017-04-06T11:35:38.022Z,1016.53
2017-04-06T11:36:38.046Z,1016.5
2017-04-06T11:38:38.093Z,1016.5
2017-04-06T11:39:38.118Z,1016.51
2017-04-06T11:40:38.142Z,1016.58
2017-04-06T11:41:38.166Z,1016.46
2017-04-06T11:42:38.191Z,1016.49
2017-04-06T11:43:38.216Z,1016.54
2017-04-06T11:44:38.238Z,1016.54
2017-04-06T11:45:38.263Z,1016.52
2017-04-06T11:46:38.287Z,1016.51
2017-04-06T11:47:38.310Z,1016.53
2017-04-06T11:48:38.335Z,1016.49
2017-04-06T11:49:38.360Z,1016.52
2017-04-06T11:50:38.385Z,1016.47
2017-04-06T11:51:38.407Z,1016.46
2017-04-06T11:52:38.431Z,1016.47
2017-04-06T11:54:38.486Z,1016.55
2017-04-06T11:55:38.504Z,1016.54
2017-04-06T11:56:38.529Z,1016.49
2017-04-06T11:57:38.553Z,1016.55
2017-04-06T11:58:38.576Z,1016.49
2017-04-06T11:59:38.600Z,1016.48
2017-04-06T12:00:38.630Z,1016.52
2017-04-06T12:01:38.649Z,1016.52
2017-04-06T12:02:38.674Z,1016.55
2017-04-06T12:03:38.697Z,1016.52
2017-04-06T12:04:38.723Z,1016.49
2017-04-06T12:05:38.746Z,1016.56
2017-04-06T12:06:38.770Z,1016.48
2017-04-06T12:07:38.795Z,1016.47
2017-04-06T12:08:38.819Z,1016.43
2017-04-06T12:10:38.866Z,1016.39
2017-04-06T12:11:38.890Z,1016.5
2017-04-06T12:12:38.915Z,1016.38
2017-04-06T12:13:38.938Z,1016.49
2017-04-06T12:14:38.962Z,1016.38
2017-04-06T12:15:38.986Z,1016.39
2017-04-06T12:16:39.060Z,1016.42
2017-04-06T12:17:39.034Z,1016.39
2017-04-06T12:18:39.057Z,1016.44
2017-04-06T12:19:39.082Z,1016.39
2017-04-06T12:20:39.105Z,1016.46
2017-04-06T12:21:39.131Z,1016.37
2017-04-06T12:22:39.156Z,1016.34
2017-04-06T12:23:39.178Z,1016.27
2017-04-06T12:24:39.202Z,1016.26
2017-04-06T12:26:39.250Z,1016.33
2017-04-06T12:27:39.276Z,1016.37
2017-04-06T12:28:39.298Z,1016.35
2017-04-06T12:29:39.327Z,1016.46
2017-04-06T12:30:39.349Z,1016.27
2017-04-06T12:31:39.372Z,1016.28
2017-04-06T12:32:39.395Z,1016.26
2017-04-06T12:33:39.470Z,1016.22
2017-04-06T12:34:39.444Z,1016.23
2017-04-06T12:35:39.468Z,1016.24
2017-04-06T12:36:39.497Z,1016.2
2017-04-06T12:37:39.518Z,1016.21
2017-04-06T12:38:39.542Z,1016.17
2017-04-06T12:39:39.567Z,1016.21
2017-04-06T12:41:39.626Z,1016.08
2017-04-06T12:42:39.638Z,1016.18
2017-04-06T12:43:39.663Z,1016.2
2017-04-06T12:44:39.687Z,1016.19
2017-04-06T12:45:40.565Z,1016.12
2017-04-06T12:46:39.735Z,1016.13
2017-04-06T12:47:39.761Z,1016.12
2017-04-06T12:48:39.784Z,1016.09
2017-04-06T12:49:39.809Z,1016.02
2017-04-06T12:50:39.834Z,1016.07